Time;durP1;ratioP1;P1;durP2;ratioP2;P2;SDS_P1;SDS_P2;PMS_P1;PMS_P2;Temp;Humidity;BMP_temperature;BMP_pressure;BME280_temperature;BME280_humidity;BME280_pressure;Samples;Min_cycle;Max_cycle;Signal;HPM_P1;HPM_P2
2024/02/29 18:22:26;;;;;;;10.20;4.10;;;24.20;99.90;;;;;;5278099;23;20059;-44
2024/02/29 18:24:52;;;;;;;7.68;3.55;;;24.20;99.90;;;;;;4936977;29;20027;-43
2024/02/29 18:27:18;;;;;;;8.20;3.95;;;24.20;99.90;;;;;;4936522;29;20120;-45
2024/02/29 18:29:45;;;;;;;10.65;3.60;;;24.20;99.90;;;;;;4919624;29;20044;-44
2024/02/29 18:32:11;;;;;;;13.80;3.85;;;24.20;99.90;;;;;;4932164;29;20480;-44
2024/02/29 18:34:36;;;;;;;11.20;3.88;;;24.20;99.90;;;;;;4936318;29;20103;-45
2024/02/29 18:37:03;;;;;;;12.20;4.68;;;24.20;99.90;;;;;;4935909;29;20030;-45
2024/02/29 18:39:29;;;;;;;11.25;4.20;;;24.20;99.90;;;;;;4936079;29;20135;-46
2024/02/29 18:41:56;;;;;;;8.90;3.88;;;24.20;99.90;;;;;;4937036;29;20032;-45
2024/02/29 18:44:22;;;;;;;7.83;4.13;;;24.20;99.90;;;;;;4951749;28;20471;-44
2024/02/29 18:46:48;;;;;;;17.73;4.72;;;24.20;99.90;;;;;;4936021;29;20032;-44
2024/02/29 18:49:13;;;;;;;8.18;3.78;;;24.20;99.90;;;;;;4936630;29;20023;-44
2024/02/29 18:51:46;;;;;;;12.73;4.32;;;24.20;99.90;;;;;;4936712;29;20074;-44
2024/02/29 18:54:12;;;;;;;12.20;3.92;;;24.20;99.90;;;;;;4903580;29;20068;-43
2024/02/29 18:56:39;;;;;;;11.80;3.30;;;24.20;99.90;;;;;;4936425;29;20496;-44
2024/02/29 18:59:05;;;;;;;13.48;4.50;;;24.20;99.90;;;;;;4936980;29;20036;-45
2024/02/29 19:01:31;;;;;;;10.50;4.00;;;24.30;99.90;;;;;;4936546;29;20040;-44
2024/02/29 19:03:57;;;;;;;11.70;3.58;;;24.30;99.90;;;;;;4936637;29;20028;-45
2024/02/29 19:06:23;;;;;;;9.77;3.95;;;24.20;99.90;;;;;;4936431;29;20034;-44
2024/02/29 19:08:49;;;;;;;8.70;4.18;;;24.30;99.90;;;;;;4936447;29;20408;-46
2024/02/29 19:11:15;;;;;;;6.32;3.00;;;24.30;99.90;;;;;;4936424;29;20107;-45
2024/02/29 19:13:40;;;;;;;10.40;3.63;;;24.30;99.90;;;;;;4936380;29;20054;-45
2024/02/29 19:16:09;;;;;;;13.55;4.03;;;24.30;99.90;;;;;;4919595;29;20031;-44
2024/02/29 19:18:36;;;;;;;26.33;4.18;;;24.30;99.90;;;;;;4936141;29;20032;-44
2024/02/29 19:21:02;;;;;;;14.25;3.30;;;24.30;99.90;;;;;;4936445;29;20514;-44
2024/02/29 19:23:28;;;;;;;8.60;3.42;;;24.30;99.90;;;;;;4936204;29;20036;-45
2024/02/29 19:25:54;;;;;;;11.23;3.30;;;24.30;99.90;;;;;;4919022;29;20035;-45
2024/02/29 19:28:20;;;;;;;10.57;3.60;;;24.30;99.90;;;;;;4935287;29;20023;-45
2024/02/29 19:30:45;;;;;;;9.48;4.25;;;24.30;99.90;;;;;;4935635;29;20396;-45
2024/02/29 19:33:12;;;;;;;7.68;3.22;;;24.30;99.90;;;;;;4918261;29;20102;-45
2024/02/29 19:35:37;;;;;;;11.43;3.80;;;24.30;99.90;;;;;;4919117;29;20035;-45
2024/02/29 19:38:03;;;;;;;9.85;3.47;;;24.30;99.90;;;;;;4935979;29;20028;-45
2024/02/29 19:40:29;;;;;;;13.77;3.92;;;24.30;99.90;;;;;;4918086;29;20028;-45
2024/02/29 19:42:55;;;;;;;7.30;3.35;;;24.30;99.90;;;;;;4935340;29;20108;-45
2024/02/29 19:45:22;;;;;;;8.27;3.67;;;24.30;99.90;;;;;;4935306;29;20024;-45
2024/02/29 19:47:49;;;;;;;8.18;3.67;;;24.30;99.90;;;;;;4935436;29;20028;-45
2024/02/29 19:50:16;;;;;;;10.55;3.40;;;24.30;99.90;;;;;;4933130;29;20031;-46
2024/02/29 19:52:42;;;;;;;9.85;3.67;;;24.30;99.90;;;;;;4923250;29;20024;-45
2024/02/29 19:55:11;;;;;;;8.27;3.17;;;24.20;99.90;;;;;;4934642;29;20023;-44
2024/02/29 19:57:38;;;;;;;13.52;3.35;;;24.20;99.90;;;;;;4934307;29;20027;-45
2024/02/29 20:00:06;;;;;;;17.55;3.72;;;24.20;99.90;;;;;;4929817;29;20033;-43
2024/02/29 20:02:34;;;;;;;16.27;3.78;;;24.30;99.90;;;;;;4932645;29;20032;-45
2024/02/29 20:05:00;;;;;;;13.68;3.85;;;24.30;99.90;;;;;;4916069;29;20495;-44
2024/02/29 20:07:26;;;;;;;7.88;3.58;;;24.30;99.90;;;;;;4929320;29;20028;-43
2024/02/29 20:09:54;;;;;;;9.82;2.97;;;24.30;99.90;;;;;;4916674;29;20024;-43
2024/02/29 20:12:20;;;;;;;7.18;3.13;;;24.30;99.90;;;;;;4913817;29;20107;-43
2024/02/29 20:14:47;;;;;;;13.77;4.05;;;24.30;99.90;;;;;;4922145;29;20032;-43
2024/02/29 20:17:13;;;;;;;12.48;3.83;;;24.30;99.90;;;;;;4934326;29;20027;-43
2024/02/29 20:19:39;;;;;;;10.18;3.42;;;24.20;99.90;;;;;;4918057;29;20456;-44
2024/02/29 20:22:05;;;;;;;17.48;3.50;;;24.30;99.90;;;;;;4934996;29;20549;-43
2024/02/29 20:24:31;;;;;;;8.95;3.22;;;24.30;99.90;;;;;;4917772;29;20020;-43
2024/02/29 20:26:57;;;;;;;8.82;3.67;;;24.30;99.90;;;;;;4932330;29;20039;-43
2024/02/29 20:29:22;;;;;;;17.73;3.50;;;24.20;99.90;;;;;;4917256;29;20042;-44
2024/02/29 20:31:48;;;;;;;6.78;3.00;;;24.30;99.90;;;;;;4929254;29;20095;-43
2024/02/29 20:34:14;;;;;;;12.55;3.42;;;24.30;99.90;;;;;;4931513;29;20118;-43
2024/02/29 20:36:42;;;;;;;16.17;3.58;;;24.30;99.90;;;;;;4932299;29;20111;-43
2024/02/29 20:39:11;;;;;;;10.90;3.53;;;24.30;99.90;;;;;;4905117;29;20491;-43
2024/02/29 20:41:36;;;;;;;6.93;3.33;;;24.30;99.90;;;;;;4932013;29;20050;-43
2024/02/29 20:44:02;;;;;;;7.43;3.22;;;24.30;99.90;;;;;;4930647;29;20024;-45
2024/02/29 20:46:30;;;;;;;7.78;3.05;;;24.20;99.90;;;;;;4921568;29;20069;-44
2024/02/29 20:48:56;;;;;;;8.10;3.35;;;24.30;99.90;;;;;;4931882;29;20342;-42
2024/02/29 20:51:22;;;;;;;9.27;2.97;;;24.30;99.90;;;;;;4931976;29;20024;-43
2024/02/29 20:53:47;;;;;;;4.90;2.60;;;24.30;99.90;;;;;;4910478;29;20024;-45
2024/02/29 20:56:13;;;;;;;7.28;3.03;;;24.30;99.90;;;;;;4930008;29;20024;-44
2024/02/29 20:58:39;;;;;;;7.40;2.92;;;24.30;99.90;;;;;;4923996;29;20024;-43
2024/02/29 21:01:05;;;;;;;8.23;3.08;;;24.30;99.90;;;;;;4932423;29;20050;-43
2024/02/29 21:03:31;;;;;;;10.02;2.97;;;24.30;99.90;;;;;;4920856;29;20028;-45
2024/02/29 21:05:57;;;;;;;9.00;2.78;;;24.30;99.90;;;;;;4935652;29;20059;-42
2024/02/29 21:08:23;;;;;;;7.20;2.88;;;24.30;99.90;;;;;;4919116;29;20056;-42
2024/02/29 21:10:49;;;;;;;8.00;2.88;;;24.30;99.90;;;;;;4914990;29;20026;-44
2024/02/29 21:13:15;;;;;;;7.38;2.75;;;24.30;99.90;;;;;;4932644;29;20543;-43
2024/02/29 21:15:42;;;;;;;9.15;3.50;;;24.20;99.90;;;;;;4934817;29;20032;-43
2024/02/29 21:18:07;;;;;;;8.45;3.10;;;24.30;99.90;;;;;;4938090;29;20011;-46
2024/02/29 21:20:34;;;;;;;5.93;3.15;;;24.30;99.90;;;;;;4937449;29;20499;-44
2024/02/29 21:23:00;;;;;;;6.07;2.85;;;24.30;99.90;;;;;;4970847;23;20085;-53
2024/02/29 21:25:26;;;;;;;5.05;2.75;;;24.30;99.90;;;;;;4968853;28;20031;-50
2024/02/29 21:27:52;;;;;;;6.53;3.03;;;24.30;99.90;;;;;;4952471;28;20030;-50
2024/02/29 21:30:18;;;;;;;6.45;2.90;;;24.30;99.90;;;;;;4966649;28;20035;-50
2024/02/29 21:32:44;;;;;;;5.70;2.88;;;24.30;99.90;;;;;;4954141;28;20029;-49
2024/02/29 21:35:10;;;;;;;4.13;2.90;;;24.30;99.90;;;;;;4956559;28;20365;-49
2024/02/29 21:37:35;;;;;;;10.13;3.15;;;24.20;99.90;;;;;;4933258;29;20558;-51
2024/02/29 21:40:01;;;;;;;4.65;2.40;;;24.30;99.90;;;;;;4955980;28;20074;-51
2024/02/29 21:42:27;;;;;;;3.85;2.20;;;24.30;99.90;;;;;;4935713;29;20083;-52
2024/02/29 21:44:53;;;;;;;6.22;2.67;;;24.20;99.90;;;;;;4946775;28;20469;-51
2024/02/29 21:47:19;;;;;;;7.93;3.50;;;24.20;99.90;;;;;;4953672;28;20479;-51
2024/02/29 21:49:45;;;;;;;5.88;2.95;;;24.20;99.90;;;;;;4952294;28;20506;-51
2024/02/29 21:52:11;;;;;;;7.15;2.42;;;24.20;99.90;;;;;;4937336;29;20023;-51
2024/02/29 21:54:39;;;;;;;6.35;2.88;;;24.20;99.90;;;;;;4954353;28;20034;-51
2024/02/29 21:57:04;;;;;;;4.63;2.33;;;24.20;99.90;;;;;;4954553;28;20027;-52
2024/02/29 21:59:30;;;;;;;5.50;2.58;;;24.20;99.90;;;;;;4954194;28;20234;-51
2024/02/29 22:01:56;;;;;;;3.22;2.47;;;24.20;99.90;;;;;;4954384;28;20034;-53
2024/02/29 22:04:21;;;;;;;4.22;2.80;;;24.20;99.90;;;;;;4956214;28;20030;-53
2024/02/29 22:06:47;;;;;;;7.43;2.53;;;24.20;99.90;;;;;;4955667;28;20034;-53
2024/02/29 22:09:13;;;;;;;4.80;2.20;;;24.20;99.90;;;;;;4956139;28;20027;-53
2024/02/29 22:11:39;;;;;;;5.13;2.80;;;24.20;99.90;;;;;;4956326;28;20035;-51
2024/02/29 22:14:05;;;;;;;3.60;2.33;;;24.20;99.90;;;;;;4956192;28;20026;-51
2024/02/29 22:16:31;;;;;;;5.25;2.58;;;24.20;99.90;;;;;;4956150;28;20519;-52
2024/02/29 22:18:57;;;;;;;3.47;2.70;;;24.20;99.90;;;;;;4955143;28;20019;-51
2024/02/29 22:21:29;;;;;;;3.22;2.20;;;24.20;99.90;;;;;;4967324;23;20022;-42
2024/02/29 22:23:57;;;;;;;6.28;2.42;;;24.20;99.90;;;;;;4955687;28;20051;-43
2024/02/29 22:26:26;;;;;;;4.68;2.05;;;24.20;99.90;;;;;;4956214;28;20019;-43
2024/02/29 22:28:52;;;;;;;5.20;2.90;;;24.10;99.90;;;;;;4955813;28;20106;-44
2024/02/29 22:31:19;;;;;;;2.80;2.30;;;24.10;99.90;;;;;;4955178;28;20047;-43
2024/02/29 22:33:45;;;;;;;2.75;2.03;;;24.10;99.90;;;;;;4938894;28;20047;-42
2024/02/29 22:36:11;;;;;;;2.45;1.75;;;24.10;99.90;;;;;;4938601;28;20015;-42
2024/02/29 22:38:37;;;;;;;4.90;2.40;;;24.10;99.90;;;;;;4938605;29;20033;-42
2024/02/29 22:41:03;;;;;;;5.50;2.10;;;24.10;99.90;;;;;;4955253;28;20043;-42
2024/02/29 22:43:29;;;;;;;5.93;2.38;;;24.10;99.90;;;;;;4955753;28;20031;-44
2024/02/29 22:45:55;;;;;;;4.72;2.55;;;24.10;99.90;;;;;;4938337;29;20027;-42
2024/02/29 22:48:21;;;;;;;4.55;2.40;;;24.10;99.90;;;;;;4955635;28;20095;-42
2024/02/29 22:50:47;;;;;;;3.88;2.15;;;24.10;99.90;;;;;;4938314;29;20110;-41
2024/02/29 22:53:13;;;;;;;3.10;2.17;;;24.00;99.90;;;;;;4955441;28;20074;-42
2024/02/29 22:55:39;;;;;;;3.58;2.47;;;24.00;99.90;;;;;;4955517;28;20113;-42
2024/02/29 22:58:05;;;;;;;3.78;2.47;;;24.00;99.90;;;;;;4938370;29;20423;-43
2024/02/29 23:00:32;;;;;;;3.90;2.40;;;24.00;99.90;;;;;;4955315;28;20492;-44
2024/02/29 23:02:58;;;;;;;;;;;24.00;99.90;;;;;;4938283;29;20471;-41
2024/02/29 23:05:24;;;;;;;3.53;2.45;;;24.00;99.90;;;;;;4937757;29;19910;-44
2024/02/29 23:07:52;;;;;;;5.82;2.55;;;24.00;99.90;;;;;;4955433;28;20066;-45
2024/02/29 23:10:21;;;;;;;4.38;2.40;;;24.00;99.90;;;;;;4955283;28;20175;-43
2024/02/29 23:12:48;;;;;;;4.05;1.80;;;24.00;99.90;;;;;;4938366;29;20039;-45
2024/02/29 23:15:15;;;;;;;3.13;1.67;;;23.90;99.90;;;;;;4954176;28;20016;-40
2024/02/29 23:17:41;;;;;;;3.40;2.10;;;23.90;99.90;;;;;;4953661;28;20039;-42
2024/02/29 23:20:07;;;;;;;3.70;1.98;;;23.90;99.90;;;;;;4953050;28;20015;-42
2024/02/29 23:22:33;;;;;;;4.53;2.13;;;23.90;99.90;;;;;;4954670;28;20047;-42
2024/02/29 23:24:59;;;;;;;3.60;2.13;;;23.90;99.90;;;;;;4937950;29;20025;-42
2024/02/29 23:27:25;;;;;;;2.35;1.85;;;23.80;99.90;;;;;;4938018;29;20070;-44
2024/02/29 23:29:52;;;;;;;4.65;2.10;;;23.80;99.90;;;;;;4954631;28;20110;-43
2024/02/29 23:32:18;;;;;;;4.57;1.77;;;23.80;99.90;;;;;;4954534;28;20042;-44
2024/02/29 23:34:44;;;;;;;4.40;1.80;;;23.80;99.90;;;;;;4954770;28;20027;-44
2024/02/29 23:37:10;;;;;;;2.95;1.70;;;23.80;99.90;;;;;;4954309;28;20031;-43
2024/02/29 23:39:37;;;;;;;5.88;2.08;;;23.80;99.90;;;;;;4929031;29;20389;-43
2024/02/29 23:42:03;;;;;;;2.67;1.90;;;23.80;99.90;;;;;;4951616;28;20038;-42
2024/02/29 23:44:28;;;;;;;3.95;2.20;;;23.80;99.90;;;;;;4953686;28;20027;-44
2024/02/29 23:46:54;;;;;;;3.75;1.67;;;23.80;99.90;;;;;;4954668;28;20103;-42
2024/02/29 23:49:20;;;;;;;3.08;1.42;;;23.80;99.90;;;;;;4954488;28;20031;-42
2024/02/29 23:51:46;;;;;;;2.70;1.48;;;23.80;99.90;;;;;;4953755;28;20122;-43
2024/02/29 23:54:11;;;;;;;3.42;1.73;;;23.70;99.90;;;;;;4954372;28;20051;-43
2024/02/29 23:56:37;;;;;;;2.15;1.55;;;23.70;99.90;;;;;;4954536;28;20379;-41
2024/02/29 23:59:03;;;;;;;3.30;1.50;;;23.70;99.90;;;;;;4954267;28;20026;-41
